sensor_id;sensor_type;location;lat;lon;timestamp;P1;durP1;ratioP1;P2;durP2;ratioP2
49153;SDS011;49455;52.252;9.124;2023-04-24T00:02:59;0.50;;;0.50;;
49153;SDS011;49455;52.252;9.124;2023-04-24T00:07:59;0.75;;;0.50;;
49153;SDS011;49455;52.252;9.124;2023-04-24T00:12:59;0.88;;;0.73;;
49153;SDS011;49455;52.252;9.124;2023-04-24T00:18:00;0.93;;;0.63;;
49153;SDS011;49455;52.252;9.124;2023-04-24T00:23:00;1.00;;;0.90;;
49153;SDS011;49455;52.252;9.124;2023-04-24T00:28:01;2.13;;;0.80;;
49153;SDS011;49455;52.252;9.124;2023-04-24T00:33:01;0.88;;;0.70;;
49153;SDS011;49455;52.252;9.124;2023-04-24T00:38:02;0.50;;;0.47;;
49153;SDS011;49455;52.252;9.124;2023-04-24T00:43:02;0.32;;;0.30;;
49153;SDS011;49455;52.252;9.124;2023-04-24T00:48:02;3.77;;;0.43;;
49153;SDS011;49455;52.252;9.124;2023-04-24T00:53:04;0.47;;;0.47;;
49153;SDS011;49455;52.252;9.124;2023-04-24T00:58:04;0.40;;;0.40;;
49153;SDS011;49455;52.252;9.124;2023-04-24T01:03:05;1.00;;;0.45;;
49153;SDS011;49455;52.252;9.124;2023-04-24T01:08:07;1.35;;;0.40;;
49153;SDS011;49455;52.252;9.124;2023-04-24T01:13:07;0.38;;;0.38;;
49153;SDS011;49455;52.252;9.124;2023-04-24T01:18:08;0.50;;;0.38;;
49153;SDS011;49455;52.252;9.124;2023-04-24T01:23:08;1.00;;;0.60;;
49153;SDS011;49455;52.252;9.124;2023-04-24T01:28:09;0.95;;;0.73;;
49153;SDS011;49455;52.252;9.124;2023-04-24T01:33:10;0.95;;;0.50;;
49153;SDS011;49455;52.252;9.124;2023-04-24T01:38:10;0.65;;;0.60;;
49153;SDS011;49455;52.252;9.124;2023-04-24T01:43:11;0.75;;;0.60;;
49153;SDS011;49455;52.252;9.124;2023-04-24T01:48:12;0.40;;;0.40;;
49153;SDS011;49455;52.252;9.124;2023-04-24T01:53:13;1.00;;;0.80;;
49153;SDS011;49455;52.252;9.124;2023-04-24T01:58:13;0.88;;;0.80;;
49153;SDS011;49455;52.252;9.124;2023-04-24T02:03:14;0.73;;;0.65;;
49153;SDS011;49455;52.252;9.124;2023-04-24T02:08:15;1.10;;;0.50;;
49153;SDS011;49455;52.252;9.124;2023-04-24T02:13:15;0.80;;;0.57;;
49153;SDS011;49455;52.252;9.124;2023-04-24T02:18:15;1.15;;;0.70;;
49153;SDS011;49455;52.252;9.124;2023-04-24T02:23:16;0.63;;;0.50;;
49153;SDS011;49455;52.252;9.124;2023-04-24T02:28:16;0.50;;;0.50;;
49153;SDS011;49455;52.252;9.124;2023-04-24T02:33:17;1.35;;;0.45;;
49153;SDS011;49455;52.252;9.124;2023-04-24T02:38:17;0.50;;;0.50;;
49153;SDS011;49455;52.252;9.124;2023-04-24T02:43:17;2.17;;;0.75;;
49153;SDS011;49455;52.252;9.124;2023-04-24T02:48:18;1.15;;;0.70;;
49153;SDS011;49455;52.252;9.124;2023-04-24T02:53:18;0.65;;;0.52;;
49153;SDS011;49455;52.252;9.124;2023-04-24T02:58:19;1.42;;;1.00;;
49153;SDS011;49455;52.252;9.124;2023-04-24T03:03:19;1.25;;;1.00;;
49153;SDS011;49455;52.252;9.124;2023-04-24T03:08:20;2.58;;;0.90;;
49153;SDS011;49455;52.252;9.124;2023-04-24T03:13:20;3.85;;;1.10;;
49153;SDS011;49455;52.252;9.124;2023-04-24T03:18:20;1.45;;;1.13;;
49153;SDS011;49455;52.252;9.124;2023-04-24T03:23:23;0.65;;;0.60;;
49153;SDS011;49455;52.252;9.124;2023-04-24T03:28:23;1.27;;;0.63;;
49153;SDS011;49455;52.252;9.124;2023-04-24T03:33:31;2.47;;;0.80;;
49153;SDS011;49455;52.252;9.124;2023-04-24T03:38:34;0.75;;;0.60;;
49153;SDS011;49455;52.252;9.124;2023-04-24T03:43:50;0.75;;;0.57;;
49153;SDS011;49455;52.252;9.124;2023-04-24T03:48:51;1.33;;;0.52;;
49153;SDS011;49455;52.252;9.124;2023-04-24T03:53:54;0.40;;;0.40;;
49153;SDS011;49455;52.252;9.124;2023-04-24T03:58:56;0.80;;;0.60;;
49153;SDS011;49455;52.252;9.124;2023-04-24T04:03:57;0.43;;;0.43;;
49153;SDS011;49455;52.252;9.124;2023-04-24T04:08:59;1.13;;;0.50;;
49153;SDS011;49455;52.252;9.124;2023-04-24T04:14:00;0.82;;;0.60;;
49153;SDS011;49455;52.252;9.124;2023-04-24T04:19:00;2.45;;;0.90;;
49153;SDS011;49455;52.252;9.124;2023-04-24T04:24:01;1.42;;;0.60;;
49153;SDS011;49455;52.252;9.124;2023-04-24T04:29:07;1.08;;;0.90;;
49153;SDS011;49455;52.252;9.124;2023-04-24T04:34:11;0.60;;;0.60;;
49153;SDS011;49455;52.252;9.124;2023-04-24T04:39:13;0.70;;;0.70;;
49153;SDS011;49455;52.252;9.124;2023-04-24T04:44:24;0.82;;;0.82;;
49153;SDS011;49455;52.252;9.124;2023-04-24T04:49:25;0.90;;;0.83;;
49153;SDS011;49455;52.252;9.124;2023-04-24T04:54:26;0.80;;;0.80;;
49153;SDS011;49455;52.252;9.124;2023-04-24T04:59:27;0.95;;;0.80;;
49153;SDS011;49455;52.252;9.124;2023-04-24T05:04:34;0.95;;;0.80;;
49153;SDS011;49455;52.252;9.124;2023-04-24T05:09:35;1.80;;;0.90;;
49153;SDS011;49455;52.252;9.124;2023-04-24T05:14:39;1.65;;;0.98;;
49153;SDS011;49455;52.252;9.124;2023-04-24T05:19:40;1.43;;;1.03;;
49153;SDS011;49455;52.252;9.124;2023-04-24T05:24:42;2.40;;;1.05;;
49153;SDS011;49455;52.252;9.124;2023-04-24T05:30:02;1.45;;;1.13;;
49153;SDS011;49455;52.252;9.124;2023-04-24T05:35:03;2.07;;;1.40;;
49153;SDS011;49455;52.252;9.124;2023-04-24T05:40:04;4.28;;;2.08;;
49153;SDS011;49455;52.252;9.124;2023-04-24T05:45:05;4.00;;;2.30;;
49153;SDS011;49455;52.252;9.124;2023-04-24T05:50:06;3.08;;;2.08;;
49153;SDS011;49455;52.252;9.124;2023-04-24T05:55:07;5.10;;;2.30;;
49153;SDS011;49455;52.252;9.124;2023-04-24T06:00:11;5.72;;;2.70;;
49153;SDS011;49455;52.252;9.124;2023-04-24T06:05:22;4.97;;;3.67;;
49153;SDS011;49455;52.252;9.124;2023-04-24T06:10:22;7.03;;;4.07;;
49153;SDS011;49455;52.252;9.124;2023-04-24T06:15:23;7.35;;;3.88;;
49153;SDS011;49455;52.252;9.124;2023-04-24T06:20:33;7.63;;;3.72;;
49153;SDS011;49455;52.252;9.124;2023-04-24T06:25:35;7.43;;;4.28;;
49153;SDS011;49455;52.252;9.124;2023-04-24T06:30:36;9.57;;;4.07;;
49153;SDS011;49455;52.252;9.124;2023-04-24T06:35:36;14.25;;;5.13;;
49153;SDS011;49455;52.252;9.124;2023-04-24T06:40:37;8.15;;;4.32;;
49153;SDS011;49455;52.252;9.124;2023-04-24T06:45:38;11.35;;;5.45;;
49153;SDS011;49455;52.252;9.124;2023-04-24T06:50:38;10.87;;;5.40;;
49153;SDS011;49455;52.252;9.124;2023-04-24T06:55:39;10.38;;;5.55;;
49153;SDS011;49455;52.252;9.124;2023-04-24T07:00:39;12.82;;;5.13;;
49153;SDS011;49455;52.252;9.124;2023-04-24T07:05:39;11.00;;;5.07;;
49153;SDS011;49455;52.252;9.124;2023-04-24T07:10:40;11.32;;;5.32;;
49153;SDS011;49455;52.252;9.124;2023-04-24T07:15:40;14.27;;;6.75;;
49153;SDS011;49455;52.252;9.124;2023-04-24T07:20:41;12.00;;;5.95;;
49153;SDS011;49455;52.252;9.124;2023-04-24T07:25:41;14.57;;;5.78;;
49153;SDS011;49455;52.252;9.124;2023-04-24T07:30:42;14.65;;;5.80;;
49153;SDS011;49455;52.252;9.124;2023-04-24T07:35:42;11.40;;;5.32;;
49153;SDS011;49455;52.252;9.124;2023-04-24T07:40:42;11.20;;;6.38;;
49153;SDS011;49455;52.252;9.124;2023-04-24T07:45:43;11.65;;;6.05;;
49153;SDS011;49455;52.252;9.124;2023-04-24T07:50:44;15.70;;;6.18;;
49153;SDS011;49455;52.252;9.124;2023-04-24T07:55:45;13.70;;;5.50;;
49153;SDS011;49455;52.252;9.124;2023-04-24T08:00:45;13.25;;;5.53;;
49153;SDS011;49455;52.252;9.124;2023-04-24T08:05:46;14.18;;;5.50;;
49153;SDS011;49455;52.252;9.124;2023-04-24T08:10:47;15.40;;;6.40;;
49153;SDS011;49455;52.252;9.124;2023-04-24T08:15:47;11.85;;;5.63;;
49153;SDS011;49455;52.252;9.124;2023-04-24T08:20:48;9.52;;;5.25;;
49153;SDS011;49455;52.252;9.124;2023-04-24T08:25:48;9.13;;;4.80;;
49153;SDS011;49455;52.252;9.124;2023-04-24T08:30:49;8.40;;;4.43;;
49153;SDS011;49455;52.252;9.124;2023-04-24T08:35:49;9.05;;;4.50;;
49153;SDS011;49455;52.252;9.124;2023-04-24T08:40:50;7.55;;;4.40;;
49153;SDS011;49455;52.252;9.124;2023-04-24T08:45:51;6.30;;;4.25;;
49153;SDS011;49455;52.252;9.124;2023-04-24T08:50:52;7.83;;;4.93;;
49153;SDS011;49455;52.252;9.124;2023-04-24T08:55:53;12.52;;;4.55;;
49153;SDS011;49455;52.252;9.124;2023-04-24T09:05:55;8.05;;;4.13;;
49153;SDS011;49455;52.252;9.124;2023-04-24T09:10:57;9.27;;;3.60;;
49153;SDS011;49455;52.252;9.124;2023-04-24T09:15:57;7.03;;;3.75;;
49153;SDS011;49455;52.252;9.124;2023-04-24T09:21:03;8.05;;;3.83;;
49153;SDS011;49455;52.252;9.124;2023-04-24T09:26:07;7.85;;;3.60;;
49153;SDS011;49455;52.252;9.124;2023-04-24T09:31:13;5.43;;;3.20;;
49153;SDS011;49455;52.252;9.124;2023-04-24T09:36:15;4.50;;;2.90;;
49153;SDS011;49455;52.252;9.124;2023-04-24T09:41:17;3.97;;;2.55;;
49153;SDS011;49455;52.252;9.124;2023-04-24T09:46:18;3.13;;;1.98;;
49153;SDS011;49455;52.252;9.124;2023-04-24T09:51:18;3.43;;;2.30;;
49153;SDS011;49455;52.252;9.124;2023-04-24T09:56:34;3.38;;;2.05;;
49153;SDS011;49455;52.252;9.124;2023-04-24T10:01:34;9.40;;;2.55;;
49153;SDS011;49455;52.252;9.124;2023-04-24T10:06:34;3.63;;;2.35;;
49153;SDS011;49455;52.252;9.124;2023-04-24T10:11:35;3.85;;;2.30;;
49153;SDS011;49455;52.252;9.124;2023-04-24T10:16:36;3.22;;;2.05;;
49153;SDS011;49455;52.252;9.124;2023-04-24T10:21:38;3.38;;;2.47;;
49153;SDS011;49455;52.252;9.124;2023-04-24T10:26:40;4.00;;;1.90;;
49153;SDS011;49455;52.252;9.124;2023-04-24T10:31:41;2.25;;;1.98;;
49153;SDS011;49455;52.252;9.124;2023-04-24T10:36:43;2.97;;;1.95;;
49153;SDS011;49455;52.252;9.124;2023-04-24T10:41:50;2.83;;;1.70;;
49153;SDS011;49455;52.252;9.124;2023-04-24T10:46:54;2.40;;;1.65;;
49153;SDS011;49455;52.252;9.124;2023-04-24T10:51:59;3.15;;;1.77;;
49153;SDS011;49455;52.252;9.124;2023-04-24T11:02:23;2.83;;;1.58;;
49153;SDS011;49455;52.252;9.124;2023-04-24T11:13:13;2.08;;;1.40;;
49153;SDS011;49455;52.252;9.124;2023-04-24T11:18:14;1.58;;;1.27;;
49153;SDS011;49455;52.252;9.124;2023-04-24T11:23:15;1.05;;;1.00;;
49153;SDS011;49455;52.252;9.124;2023-04-24T11:28:16;1.27;;;1.10;;
49153;SDS011;49455;52.252;9.124;2023-04-24T11:33:19;0.80;;;0.73;;
49153;SDS011;49455;52.252;9.124;2023-04-24T11:38:20;1.00;;;0.90;;
49153;SDS011;49455;52.252;9.124;2023-04-24T11:43:20;1.23;;;1.05;;
49153;SDS011;49455;52.252;9.124;2023-04-24T11:48:21;1.45;;;1.30;;
49153;SDS011;49455;52.252;9.124;2023-04-24T11:53:22;2.22;;;1.27;;
49153;SDS011;49455;52.252;9.124;2023-04-24T11:58:22;2.10;;;1.67;;
49153;SDS011;49455;52.252;9.124;2023-04-24T12:03:22;2.45;;;1.80;;
49153;SDS011;49455;52.252;9.124;2023-04-24T12:08:26;2.55;;;1.90;;
49153;SDS011;49455;52.252;9.124;2023-04-24T12:13:27;2.08;;;1.60;;
49153;SDS011;49455;52.252;9.124;2023-04-24T12:18:28;2.78;;;1.45;;
49153;SDS011;49455;52.252;9.124;2023-04-24T12:23:35;1.58;;;1.45;;
49153;SDS011;49455;52.252;9.124;2023-04-24T12:28:36;2.47;;;2.00;;
49153;SDS011;49455;52.252;9.124;2023-04-24T12:38:38;2.40;;;1.77;;
49153;SDS011;49455;52.252;9.124;2023-04-24T12:43:50;1.60;;;1.40;;
49153;SDS011;49455;52.252;9.124;2023-04-24T12:48:53;1.98;;;1.30;;
49153;SDS011;49455;52.252;9.124;2023-04-24T12:53:54;3.72;;;1.10;;
49153;SDS011;49455;52.252;9.124;2023-04-24T12:58:54;0.80;;;0.80;;
49153;SDS011;49455;52.252;9.124;2023-04-24T13:03:55;1.63;;;1.00;;
49153;SDS011;49455;52.252;9.124;2023-04-24T13:08:55;2.38;;;1.02;;
49153;SDS011;49455;52.252;9.124;2023-04-24T13:13:55;1.40;;;0.80;;
49153;SDS011;49455;52.252;9.124;2023-04-24T13:18:56;3.80;;;0.60;;
49153;SDS011;49455;52.252;9.124;2023-04-24T13:23:56;2.40;;;1.25;;
49153;SDS011;49455;52.252;9.124;2023-04-24T13:28:57;1.90;;;1.25;;
49153;SDS011;49455;52.252;9.124;2023-04-24T13:33:57;4.20;;;1.38;;
49153;SDS011;49455;52.252;9.124;2023-04-24T13:38:58;4.45;;;1.40;;
49153;SDS011;49455;52.252;9.124;2023-04-24T13:43:58;2.80;;;1.58;;
49153;SDS011;49455;52.252;9.124;2023-04-24T13:48:58;4.53;;;2.00;;
49153;SDS011;49455;52.252;9.124;2023-04-24T13:53:59;2.78;;;1.52;;
49153;SDS011;49455;52.252;9.124;2023-04-24T13:58:59;2.20;;;1.23;;
49153;SDS011;49455;52.252;9.124;2023-04-24T14:04:00;2.60;;;1.45;;
49153;SDS011;49455;52.252;9.124;2023-04-24T14:09:00;2.92;;;1.58;;
49153;SDS011;49455;52.252;9.124;2023-04-24T14:14:01;3.53;;;1.30;;
49153;SDS011;49455;52.252;9.124;2023-04-24T14:19:01;3.03;;;1.85;;
49153;SDS011;49455;52.252;9.124;2023-04-24T14:24:02;4.22;;;1.88;;
49153;SDS011;49455;52.252;9.124;2023-04-24T14:29:02;5.78;;;2.38;;
49153;SDS011;49455;52.252;9.124;2023-04-24T14:34:03;4.30;;;2.38;;
49153;SDS011;49455;52.252;9.124;2023-04-24T14:39:03;4.70;;;2.55;;
49153;SDS011;49455;52.252;9.124;2023-04-24T14:44:03;5.22;;;2.75;;
49153;SDS011;49455;52.252;9.124;2023-04-24T14:49:04;4.07;;;2.55;;
49153;SDS011;49455;52.252;9.124;2023-04-24T14:54:04;4.85;;;2.40;;
49153;SDS011;49455;52.252;9.124;2023-04-24T14:59:05;4.85;;;2.30;;
49153;SDS011;49455;52.252;9.124;2023-04-24T15:04:05;5.13;;;2.60;;
49153;SDS011;49455;52.252;9.124;2023-04-24T15:09:06;4.68;;;2.35;;
49153;SDS011;49455;52.252;9.124;2023-04-24T15:14:06;7.10;;;2.50;;
49153;SDS011;49455;52.252;9.124;2023-04-24T15:19:06;5.13;;;2.53;;
49153;SDS011;49455;52.252;9.124;2023-04-24T15:24:07;7.85;;;3.10;;
49153;SDS011;49455;52.252;9.124;2023-04-24T15:29:08;9.40;;;3.10;;
49153;SDS011;49455;52.252;9.124;2023-04-24T15:34:08;5.70;;;2.97;;
49153;SDS011;49455;52.252;9.124;2023-04-24T15:39:09;9.05;;;3.45;;
49153;SDS011;49455;52.252;9.124;2023-04-24T15:44:09;7.15;;;2.85;;
49153;SDS011;49455;52.252;9.124;2023-04-24T15:49:10;6.90;;;3.10;;
49153;SDS011;49455;52.252;9.124;2023-04-24T15:54:10;8.80;;;3.03;;
49153;SDS011;49455;52.252;9.124;2023-04-24T15:59:10;7.60;;;3.08;;
49153;SDS011;49455;52.252;9.124;2023-04-24T16:04:11;7.38;;;2.97;;
49153;SDS011;49455;52.252;9.124;2023-04-24T16:09:11;4.20;;;2.95;;
49153;SDS011;49455;52.252;9.124;2023-04-24T16:14:12;6.40;;;2.78;;
49153;SDS011;49455;52.252;9.124;2023-04-24T16:19:12;6.93;;;3.15;;
49153;SDS011;49455;52.252;9.124;2023-04-24T16:24:13;5.00;;;3.00;;
49153;SDS011;49455;52.252;9.124;2023-04-24T16:29:13;4.75;;;2.63;;
49153;SDS011;49455;52.252;9.124;2023-04-24T16:34:13;4.55;;;2.58;;
49153;SDS011;49455;52.252;9.124;2023-04-24T16:39:14;5.25;;;2.70;;
49153;SDS011;49455;52.252;9.124;2023-04-24T16:44:14;3.08;;;2.20;;
49153;SDS011;49455;52.252;9.124;2023-04-24T16:49:15;3.65;;;2.08;;
49153;SDS011;49455;52.252;9.124;2023-04-24T16:54:15;6.55;;;1.80;;
49153;SDS011;49455;52.252;9.124;2023-04-24T16:59:16;2.58;;;1.90;;
49153;SDS011;49455;52.252;9.124;2023-04-24T17:04:16;3.50;;;1.58;;
49153;SDS011;49455;52.252;9.124;2023-04-24T17:09:17;4.05;;;2.10;;
49153;SDS011;49455;52.252;9.124;2023-04-24T17:14:17;5.88;;;1.92;;
49153;SDS011;49455;52.252;9.124;2023-04-24T17:19:17;1.63;;;1.27;;
49153;SDS011;49455;52.252;9.124;2023-04-24T17:24:18;2.05;;;1.55;;
49153;SDS011;49455;52.252;9.124;2023-04-24T17:29:18;3.42;;;1.50;;
49153;SDS011;49455;52.252;9.124;2023-04-24T17:34:19;4.43;;;1.85;;
49153;SDS011;49455;52.252;9.124;2023-04-24T17:39:19;2.15;;;1.52;;
49153;SDS011;49455;52.252;9.124;2023-04-24T17:44:19;6.30;;;1.80;;
49153;SDS011;49455;52.252;9.124;2023-04-24T17:49:20;3.28;;;1.85;;
49153;SDS011;49455;52.252;9.124;2023-04-24T17:54:20;9.55;;;1.98;;
49153;SDS011;49455;52.252;9.124;2023-04-24T17:59:21;2.58;;;1.50;;
49153;SDS011;49455;52.252;9.124;2023-04-24T18:04:21;3.05;;;1.30;;
49153;SDS011;49455;52.252;9.124;2023-04-24T18:09:21;2.08;;;1.20;;
49153;SDS011;49455;52.252;9.124;2023-04-24T18:14:22;3.13;;;1.15;;
49153;SDS011;49455;52.252;9.124;2023-04-24T18:19:23;3.30;;;1.52;;
49153;SDS011;49455;52.252;9.124;2023-04-24T18:24:23;4.93;;;2.20;;
49153;SDS011;49455;52.252;9.124;2023-04-24T18:29:24;3.17;;;1.83;;
49153;SDS011;49455;52.252;9.124;2023-04-24T18:34:24;3.72;;;1.63;;
49153;SDS011;49455;52.252;9.124;2023-04-24T18:39:25;4.57;;;1.58;;
49153;SDS011;49455;52.252;9.124;2023-04-24T18:44:25;3.03;;;1.60;;
49153;SDS011;49455;52.252;9.124;2023-04-24T18:49:25;4.47;;;2.53;;
49153;SDS011;49455;52.252;9.124;2023-04-24T18:54:26;8.38;;;1.70;;
49153;SDS011;49455;52.252;9.124;2023-04-24T18:59:26;6.00;;;2.33;;
49153;SDS011;49455;52.252;9.124;2023-04-24T19:04:27;4.93;;;1.55;;
49153;SDS011;49455;52.252;9.124;2023-04-24T19:09:28;6.82;;;2.10;;
49153;SDS011;49455;52.252;9.124;2023-04-24T19:14:29;5.32;;;2.20;;
49153;SDS011;49455;52.252;9.124;2023-04-24T19:19:29;3.40;;;1.90;;
49153;SDS011;49455;52.252;9.124;2023-04-24T19:24:29;11.10;;;2.22;;
49153;SDS011;49455;52.252;9.124;2023-04-24T19:29:30;6.28;;;1.83;;
49153;SDS011;49455;52.252;9.124;2023-04-24T19:34:30;5.78;;;2.63;;
49153;SDS011;49455;52.252;9.124;2023-04-24T19:39:31;5.53;;;2.45;;
49153;SDS011;49455;52.252;9.124;2023-04-24T19:44:31;4.40;;;2.30;;
49153;SDS011;49455;52.252;9.124;2023-04-24T19:49:31;7.43;;;2.38;;
49153;SDS011;49455;52.252;9.124;2023-04-24T19:54:32;11.27;;;2.90;;
49153;SDS011;49455;52.252;9.124;2023-04-24T19:59:32;6.22;;;2.25;;
49153;SDS011;49455;52.252;9.124;2023-04-24T20:04:33;5.10;;;2.40;;
49153;SDS011;49455;52.252;9.124;2023-04-24T20:09:33;5.72;;;2.15;;
49153;SDS011;49455;52.252;9.124;2023-04-24T20:14:33;10.88;;;2.30;;
49153;SDS011;49455;52.252;9.124;2023-04-24T20:19:37;7.10;;;2.35;;
49153;SDS011;49455;52.252;9.124;2023-04-24T20:24:37;4.85;;;2.05;;
49153;SDS011;49455;52.252;9.124;2023-04-24T20:29:38;5.97;;;2.30;;
49153;SDS011;49455;52.252;9.124;2023-04-24T20:34:38;14.18;;;2.95;;
49153;SDS011;49455;52.252;9.124;2023-04-24T20:39:39;18.70;;;2.87;;
49153;SDS011;49455;52.252;9.124;2023-04-24T20:44:39;8.25;;;2.50;;
49153;SDS011;49455;52.252;9.124;2023-04-24T20:49:39;10.30;;;2.57;;
49153;SDS011;49455;52.252;9.124;2023-04-24T20:54:40;6.53;;;2.75;;
49153;SDS011;49455;52.252;9.124;2023-04-24T20:59:40;6.13;;;2.55;;
49153;SDS011;49455;52.252;9.124;2023-04-24T21:04:41;8.10;;;2.63;;
49153;SDS011;49455;52.252;9.124;2023-04-24T21:09:41;14.55;;;3.50;;
49153;SDS011;49455;52.252;9.124;2023-04-24T21:14:41;7.88;;;2.75;;
49153;SDS011;49455;52.252;9.124;2023-04-24T21:19:42;5.85;;;2.53;;
49153;SDS011;49455;52.252;9.124;2023-04-24T21:24:42;8.18;;;2.50;;
49153;SDS011;49455;52.252;9.124;2023-04-24T21:29:43;10.85;;;2.65;;
49153;SDS011;49455;52.252;9.124;2023-04-24T21:34:43;9.27;;;2.20;;
49153;SDS011;49455;52.252;9.124;2023-04-24T21:39:44;5.20;;;2.33;;
49153;SDS011;49455;52.252;9.124;2023-04-24T21:44:44;8.60;;;2.90;;
49153;SDS011;49455;52.252;9.124;2023-04-24T21:49:44;16.52;;;3.08;;
49153;SDS011;49455;52.252;9.124;2023-04-24T21:54:48;9.85;;;2.45;;
49153;SDS011;49455;52.252;9.124;2023-04-24T21:59:48;7.00;;;2.70;;
49153;SDS011;49455;52.252;9.124;2023-04-24T22:04:49;10.43;;;2.60;;
49153;SDS011;49455;52.252;9.124;2023-04-24T22:09:50;12.00;;;3.08;;
49153;SDS011;49455;52.252;9.124;2023-04-24T22:14:50;17.08;;;3.10;;
49153;SDS011;49455;52.252;9.124;2023-04-24T22:19:51;11.50;;;2.80;;
49153;SDS011;49455;52.252;9.124;2023-04-24T22:24:51;13.10;;;3.22;;
49153;SDS011;49455;52.252;9.124;2023-04-24T22:29:52;10.50;;;2.88;;
49153;SDS011;49455;52.252;9.124;2023-04-24T22:34:52;10.20;;;2.85;;
49153;SDS011;49455;52.252;9.124;2023-04-24T22:39:52;6.40;;;2.83;;
49153;SDS011;49455;52.252;9.124;2023-04-24T22:44:53;13.27;;;3.15;;
49153;SDS011;49455;52.252;9.124;2023-04-24T22:49:53;7.95;;;3.03;;
49153;SDS011;49455;52.252;9.124;2023-04-24T22:54:54;8.60;;;2.10;;
49153;SDS011;49455;52.252;9.124;2023-04-24T22:59:54;8.90;;;3.28;;
49153;SDS011;49455;52.252;9.124;2023-04-24T23:04:55;12.70;;;2.90;;
49153;SDS011;49455;52.252;9.124;2023-04-24T23:09:55;12.57;;;3.13;;
49153;SDS011;49455;52.252;9.124;2023-04-24T23:14:56;15.15;;;2.75;;
49153;SDS011;49455;52.252;9.124;2023-04-24T23:19:56;11.90;;;3.13;;
49153;SDS011;49455;52.252;9.124;2023-04-24T23:24:56;5.18;;;2.30;;
49153;SDS011;49455;52.252;9.124;2023-04-24T23:29:57;12.25;;;3.60;;
49153;SDS011;49455;52.252;9.124;2023-04-24T23:34:57;10.07;;;2.95;;
49153;SDS011;49455;52.252;9.124;2023-04-24T23:39:58;15.43;;;3.45;;
49153;SDS011;49455;52.252;9.124;2023-04-24T23:44:58;11.02;;;3.45;;
49153;SDS011;49455;52.252;9.124;2023-04-24T23:49:58;6.47;;;3.33;;
49153;SDS011;49455;52.252;9.124;2023-04-24T23:54:59;11.93;;;2.90;;
